createdAt,value
2022-08-22T00:00:58.868Z,17.19
2022-08-22T00:03:02.938Z,20.15
2022-08-22T00:06:15.256Z,17.13
2022-08-22T00:11:29.442Z,17.09
2022-08-22T00:16:38.398Z,17.03
2022-08-22T00:21:48.737Z,17.00
2022-08-22T00:26:57.140Z,16.96
2022-08-22T00:32:10.315Z,16.92
2022-08-22T00:37:24.522Z,16.91
2022-08-22T00:42:53.950Z,16.87
2022-08-22T00:48:07.582Z,16.81
2022-08-22T00:53:32.693Z,16.74
2022-08-22T00:59:22.828Z,16.69
2022-08-22T01:04:50.933Z,16.65
2022-08-22T01:10:05.126Z,16.59
2022-08-22T01:15:11.094Z,16.53
2022-08-22T01:20:53.589Z,16.47
2022-08-22T01:26:31.487Z,16.41
2022-08-22T01:32:19.392Z,16.36
2022-08-22T01:37:59.886Z,16.30
2022-08-22T01:43:18.017Z,16.23
2022-08-22T01:48:26.016Z,16.17
2022-08-22T01:53:43.688Z,16.15
2022-08-22T01:58:58.807Z,16.08
2022-08-22T02:04:10.872Z,15.99
2022-08-22T02:09:28.916Z,16.01
2022-08-22T02:14:44.639Z,16.01
2022-08-22T02:19:55.359Z,15.97
2022-08-22T02:25:09.012Z,15.91
2022-08-22T02:30:17.137Z,15.72
2022-08-22T02:35:26.514Z,15.69
2022-08-22T02:40:35.409Z,15.67
2022-08-22T02:45:47.919Z,15.67
2022-08-22T02:50:57.396Z,15.61
2022-08-22T02:56:04.961Z,15.61
2022-08-22T03:01:24.335Z,15.62
2022-08-22T03:06:39.897Z,15.57
2022-08-22T03:11:48.366Z,15.55
2022-08-22T03:17:02.765Z,15.54
2022-08-22T03:22:11.275Z,15.52
2022-08-22T03:27:32.735Z,15.50
2022-08-22T03:32:53.701Z,15.48
2022-08-22T03:38:14.606Z,15.44
2022-08-22T03:43:39.931Z,15.42
2022-08-22T03:49:13.883Z,15.37
2022-08-22T03:54:48.951Z,15.35
2022-08-22T04:00:22.466Z,15.32
2022-08-22T04:06:11.527Z,15.30
2022-08-22T04:11:51.821Z,15.28
2022-08-22T04:17:33.581Z,15.20
2022-08-22T04:23:12.949Z,15.10
2022-08-22T04:28:20.746Z,15.02
2022-08-22T04:33:30.410Z,15.03
2022-08-22T04:38:40.072Z,15.08
2022-08-22T04:43:49.042Z,15.13
2022-08-22T04:48:56.371Z,15.19
2022-08-22T04:54:39.722Z,15.24
2022-08-22T04:59:43.693Z,15.31
2022-08-22T05:04:51.498Z,15.36
2022-08-22T05:10:11.621Z,15.42
2022-08-22T05:15:23.170Z,15.48
2022-08-22T05:20:28.688Z,15.56
2022-08-22T05:25:37.163Z,15.65
2022-08-22T05:30:41.004Z,15.77
2022-08-22T05:35:50.782Z,15.91
2022-08-22T05:41:03.101Z,16.06
2022-08-22T05:46:09.825Z,16.26
2022-08-22T05:51:18.779Z,16.41
2022-08-22T05:56:33.698Z,16.56
2022-08-22T06:01:44.580Z,16.72
2022-08-22T06:06:55.027Z,16.85
2022-08-22T06:12:01.696Z,17.00
2022-08-22T06:17:11.250Z,17.11
2022-08-22T06:22:18.744Z,17.29
2022-08-22T06:27:25.597Z,17.47
2022-08-22T06:32:59.002Z,17.66
2022-08-22T06:38:00.571Z,17.85
2022-08-22T06:43:13.245Z,18.06
2022-08-22T06:48:19.416Z,18.31
2022-08-22T06:53:25.886Z,18.54
2022-08-22T06:58:34.471Z,18.83
2022-08-22T07:03:41.994Z,19.15
2022-08-22T07:08:45.452Z,19.32
2022-08-22T07:14:01.782Z,19.40
2022-08-22T07:19:04.618Z,19.53
2022-08-22T07:24:08.765Z,19.80
2022-08-22T07:29:23.180Z,20.04
2022-08-22T07:34:44.665Z,20.28
2022-08-22T07:39:54.010Z,20.47
2022-08-22T07:45:10.169Z,20.75
2022-08-22T07:50:21.867Z,20.94
2022-08-22T07:55:27.064Z,21.16
2022-08-22T08:00:32.471Z,21.34
2022-08-22T08:05:39.453Z,21.60
2022-08-22T08:10:42.405Z,21.70
2022-08-22T08:15:47.025Z,21.92
2022-08-22T08:20:52.805Z,22.09
2022-08-22T08:26:04.323Z,22.14
2022-08-22T08:31:20.471Z,22.24
2022-08-22T08:36:31.308Z,22.26
2022-08-22T08:42:31.537Z,22.46
2022-08-22T08:47:49.580Z,22.52
2022-08-22T08:53:27.023Z,22.44
2022-08-22T08:58:43.335Z,22.54
2022-08-22T09:04:21.384Z,22.66
2022-08-22T09:09:38.577Z,23.05
2022-08-22T09:15:19.743Z,23.13
2022-08-22T09:20:48.657Z,23.36
2022-08-22T09:25:56.648Z,23.50
2022-08-22T09:31:32.841Z,23.40
2022-08-22T09:37:06.485Z,23.39
2022-08-22T09:42:21.091Z,23.53
2022-08-22T09:47:32.730Z,23.83
2022-08-22T09:52:54.708Z,24.01
2022-08-22T09:58:05.879Z,24.55
2022-08-22T10:03:20.481Z,24.79
2022-08-22T10:08:50.755Z,24.71
2022-08-22T10:14:01.529Z,24.93
2022-08-22T10:19:18.734Z,24.94
2022-08-22T10:24:43.858Z,25.31
2022-08-22T10:30:04.977Z,25.86
2022-08-22T10:35:19.504Z,26.07
2022-08-22T10:40:29.937Z,26.08
2022-08-22T10:45:36.584Z,26.01
2022-08-22T10:50:44.472Z,26.28
2022-08-22T10:55:54.049Z,26.09
2022-08-22T11:01:02.540Z,26.30
2022-08-22T11:06:30.605Z,26.67
2022-08-22T11:11:43.543Z,27.26
2022-08-22T11:16:58.022Z,27.41
2022-08-22T11:22:06.892Z,27.90
2022-08-22T11:27:21.949Z,27.63
2022-08-22T11:32:49.676Z,27.68
2022-08-22T11:38:01.120Z,27.26
2022-08-22T11:43:32.568Z,27.65
2022-08-22T11:48:48.655Z,27.93
2022-08-22T11:54:01.985Z,28.00
2022-08-22T11:59:16.218Z,27.22
2022-08-22T12:04:28.409Z,26.97
2022-08-22T12:09:55.696Z,26.60
2022-08-22T12:15:09.147Z,26.72
2022-08-22T12:20:28.305Z,26.67
2022-08-22T12:26:01.057Z,26.66
2022-08-22T12:31:13.731Z,26.28
2022-08-22T12:36:45.912Z,25.80
2022-08-22T12:42:21.616Z,25.63
2022-08-22T12:47:42.107Z,25.78
2022-08-22T12:52:58.676Z,25.83
2022-08-22T12:58:12.637Z,26.08
2022-08-22T13:03:25.815Z,25.89
2022-08-22T13:08:32.481Z,25.71
2022-08-22T13:13:40.458Z,25.58
2022-08-22T13:18:56.677Z,25.56
2022-08-22T13:24:05.771Z,25.48
2022-08-22T13:29:27.407Z,25.38
2022-08-22T13:34:49.225Z,25.32
2022-08-22T13:39:56.104Z,25.24
2022-08-22T13:45:04.465Z,25.06
2022-08-22T13:50:15.000Z,24.96
2022-08-22T13:55:21.087Z,24.96
2022-08-22T14:00:59.769Z,24.97
2022-08-22T14:06:37.530Z,24.99
2022-08-22T14:11:45.615Z,25.01
2022-08-22T14:16:51.750Z,24.96
2022-08-22T14:22:00.187Z,24.81
2022-08-22T14:27:07.150Z,24.67
2022-08-22T14:32:35.044Z,24.64
2022-08-22T14:37:44.400Z,24.70
2022-08-22T14:42:55.582Z,24.56
2022-08-22T14:48:30.556Z,24.44
2022-08-22T14:53:30.181Z,24.38
2022-08-22T14:58:37.234Z,24.25
2022-08-22T15:03:42.578Z,24.20
2022-08-22T15:08:51.635Z,24.15
2022-08-22T15:14:04.058Z,24.08
2022-08-22T15:19:26.432Z,24.06
2022-08-22T15:24:32.067Z,24.09
2022-08-22T15:29:51.683Z,24.11
2022-08-22T15:35:03.375Z,24.07
2022-08-22T15:40:13.186Z,24.09
2022-08-22T15:45:21.368Z,24.08
2022-08-22T15:50:35.986Z,24.02
2022-08-22T15:56:19.727Z,24.03
2022-08-22T16:01:25.486Z,23.99
2022-08-22T16:06:45.076Z,23.92
2022-08-22T16:11:55.908Z,23.84
2022-08-22T16:17:03.950Z,23.69
2022-08-22T16:22:16.957Z,23.60
2022-08-22T16:27:25.676Z,23.48
2022-08-22T16:32:29.340Z,23.45
2022-08-22T16:37:45.953Z,23.38
2022-08-22T16:43:10.578Z,23.26
2022-08-22T16:48:39.551Z,23.19
2022-08-22T16:54:08.719Z,23.08
2022-08-22T16:59:29.594Z,22.99
2022-08-22T17:04:52.052Z,22.92
2022-08-22T17:10:12.370Z,22.81
2022-08-22T17:15:28.035Z,22.65
2022-08-22T17:20:44.292Z,22.61
2022-08-22T17:25:59.662Z,22.58
2022-08-22T17:31:11.809Z,22.53
2022-08-22T17:36:26.994Z,22.43
2022-08-22T17:41:39.539Z,22.32
2022-08-22T17:46:49.586Z,22.19
2022-08-22T17:51:58.626Z,22.12
2022-08-22T17:57:08.193Z,22.08
2022-08-22T18:02:25.448Z,22.04
2022-08-22T18:07:38.317Z,22.00
2022-08-22T18:12:47.027Z,21.96
2022-08-22T18:17:56.724Z,21.81
2022-08-22T18:23:04.429Z,21.71
2022-08-22T18:28:13.878Z,21.61
2022-08-22T18:33:24.316Z,21.49
2022-08-22T18:38:33.224Z,21.33
2022-08-22T18:43:39.299Z,21.23
2022-08-22T18:49:05.414Z,21.15
2022-08-22T18:54:37.100Z,21.09
2022-08-22T18:59:54.782Z,20.99
2022-08-22T19:05:42.642Z,20.96
2022-08-22T19:10:55.106Z,20.85
2022-08-22T19:16:14.440Z,20.71
2022-08-22T19:21:40.819Z,20.61
2022-08-22T19:26:48.152Z,20.46
2022-08-22T19:31:54.533Z,20.42
2022-08-22T19:37:32.255Z,20.32
2022-08-22T19:42:39.999Z,20.29
2022-08-22T19:47:44.478Z,20.20
2022-08-22T19:53:05.478Z,20.15
2022-08-22T19:58:18.803Z,20.06
2022-08-22T20:03:45.719Z,19.98
2022-08-22T20:08:58.798Z,20.00
2022-08-22T20:14:30.096Z,20.05
2022-08-22T20:20:16.442Z,19.94
2022-08-22T20:25:33.386Z,19.70
2022-08-22T20:30:44.240Z,19.51
2022-08-22T20:35:54.418Z,19.51
2022-08-22T20:41:11.740Z,19.50
2022-08-22T20:46:36.386Z,19.46
2022-08-22T20:51:39.214Z,19.40
2022-08-22T20:56:53.623Z,19.34
2022-08-22T21:02:07.756Z,19.25
2022-08-22T21:07:10.658Z,19.21
2022-08-22T21:12:13.901Z,19.18
2022-08-22T21:17:27.102Z,19.21
2022-08-22T21:22:33.554Z,19.15
2022-08-22T21:27:36.610Z,19.03
2022-08-22T21:32:44.287Z,18.88
2022-08-22T21:37:47.982Z,18.88
2022-08-22T21:43:02.522Z,18.89
2022-08-22T21:48:34.257Z,18.74
2022-08-22T21:53:37.076Z,18.68
2022-08-22T21:58:43.385Z,18.70
2022-08-22T22:03:47.542Z,18.71
2022-08-22T22:08:50.696Z,18.72
2022-08-22T22:13:53.515Z,18.69
2022-08-22T22:18:57.915Z,18.70
2022-08-22T22:24:00.710Z,18.68
2022-08-22T22:29:04.570Z,18.68
2022-08-22T22:34:08.700Z,18.72
2022-08-22T22:39:11.833Z,18.74
2022-08-22T22:44:14.633Z,18.75
2022-08-22T22:49:19.327Z,18.68
2022-08-22T22:54:27.336Z,18.58
2022-08-22T22:59:30.319Z,18.50
2022-08-22T23:04:39.352Z,18.40
2022-08-22T23:09:44.966Z,18.29
2022-08-22T23:14:48.121Z,18.19
2022-08-22T23:19:53.064Z,18.11
2022-08-22T23:24:55.892Z,18.03
2022-08-22T23:29:58.701Z,18.03
2022-08-22T23:35:02.920Z,18.06
2022-08-22T23:40:09.318Z,18.02
2022-08-22T23:45:12.261Z,17.91
2022-08-22T23:50:16.438Z,17.83
2022-08-22T23:55:19.363Z,17.77
